Detall de PIREP

Printer-friendly versionPDF version

[2014/04/06 08:34:00]
Flight IATA:CT3313
Pilot Number:012
Company ICAO:CAT
Aircraft Type:A343/E
PAX:215
Departing Airport: LTBA
Destination Airport: LEZG
Alternate Airport:LEBL
Online: VATSIM
Route:GOLDO/M082F400 UN79 PINDO UM603 SUKUN/M082F410 UM622 OKIDO UZ347 MINKA UQ182 MALAV UM601 GRAUS
Flight Level:F410
No Slew and time accel
No pause
Crash detect
Detect pilot in Cockpit between each 30 and 45 minutes
08:34 Zero fuel Weight: 312372 Lbs, Fuel Weight: 47092 Lbs
08:34 VATSIM:LTBA 060750Z 05005KT 330V120 9999 FEW040 BKN100 18/07 Q1017 NOSIG
08:34 VATSIM:LEZG 060800Z 29011KT CAVOK 17/11 Q1020
08:34 Parking Brakes off
08:38 Take-off
08:38 Take off Weight: 357766 Lbs
08:38 Wind: 038º @ 005 Knots Heading: 359º
08:38 POS N40º 59´ 02´´ E028º 48´ 23´´
08:38 Gear Up: 188 Knots
08:38 Flaps:3 at 188 Knots
08:38 Flaps:1 at 208 Knots
08:39 Flaps:0 at 283 Knots
08:53 Wind:196º@039 Knots Heading: 257º Ground Speed: 433 Knots Altitude 35994 ft
09:08 Wind:255º@015 Knots Heading: 264º Ground Speed: 458 Knots Altitude 40029 ft
09:23 Wind:245º@007 Knots Heading: 263º Ground Speed: 464 Knots Altitude 39996 ft
09:38 Wind:259º@005 Knots Heading: 274º Ground Speed: 467 Knots Altitude 39937 ft
09:46 TOC
09:46 Fuel Weight: 26833 Lb
09:53 Wind:334º@010 Knots Heading: 271º Ground Speed: 465 Knots Altitude 40905 ft
10:08 Wind:336º@018 Knots Heading: 282º Ground Speed: 462 Knots Altitude 40941 ft
10:23 Wind:338º@023 Knots Heading: 269º Ground Speed: 466 Knots Altitude 40977 ft
10:38 Wind:336º@031 Knots Heading: 272º Ground Speed: 461 Knots Altitude 41089 ft
10:53 Wind:331º@034 Knots Heading: 276º Ground Speed: 455 Knots Altitude 41082 ft
11:08 Wind:322º@042 Knots Heading: 281º Ground Speed: 444 Knots Altitude 41167 ft
11:23 Wind:313º@038 Knots Heading: 300º Ground Speed: 436 Knots Altitude 41204 ft
11:24 TOD
11:24 Fuel Weight: 6062 Lb
11:38 Wind:275º@006 Knots Heading: 259º Ground Speed: 285 Knots Altitude 10314 ft
11:47 Flaps:1 at 251 Knots
11:47 Gear Down: 237 Knots
11:48 Flaps:3 at 217 Knots
11:48 Flaps:4 at 190 Knots
11:48 Flaps:5 at 178 Knots
11:49 TouchDown:Rate -695 ft/min Speed: 131 Knots
11:49 VATSIM:LEZG 061130Z 32007KT 270V010 CAVOK 22/12 Q1019
11:49 Land
11:49 Wind:303º@007 Knots
11:49 Heading: 298º
11:49 Flight Duration: 03:11
11:49 Landing Weight: 316289 Lbs
11:49 POS N41º 39´ 23´´ W001º 00´ 40´´
11:50 Parking brakes on
11:50 Block to Block Duration: 03:16
11:50 Final Fuel: 3705 Lbls
11:50 Spent Fuel: 43386 Lbls
11:50 Flight Length: 1381 NM
11:50 TOD Land Length: 128 NM

Exportar CSV

Powered by Drupal - Modified by Danger4k